Time;durP1;ratioP1;P1;durP2;ratioP2;P2;SDS_P1;SDS_P2;PMS_P1;PMS_P2;Temp;Humidity;BMP_temperature;BMP_pressure;BME280_temperature;BME280_humidity;BME280_pressure;Samples;Min_cycle;Max_cycle;Signal;HPM_P1;HPM_P2
2022/06/04 00:02:45;;;;;;;34.28;16.30;;;25.60;89.60;;;;;;5132097;27;20047;-74
2022/06/04 00:05:53;;;;;;;32.13;16.10;;;25.50;90.00;;;;;;5132191;27;20043;-74
2022/06/04 00:08:57;;;;;;;31.67;16.75;;;25.60;89.90;;;;;;5132061;27;20399;-74
2022/06/04 00:15:29;;;;;;;29.23;15.65;;;25.70;89.20;;;;;;5132241;28;20046;-74
2022/06/04 00:18:33;;;;;;;37.72;14.77;;;25.70;88.70;;;;;;5131810;28;20039;-74
2022/06/04 00:21:38;;;;;;;25.23;13.20;;;25.70;88.10;;;;;;5131810;28;20046;-74
2022/06/04 00:24:44;;;;;;;29.02;13.23;;;25.70;87.40;;;;;;5131834;28;20038;-74
2022/06/04 00:27:48;;;;;;;26.20;13.35;;;25.70;86.60;;;;;;5131882;28;20058;-74
2022/06/04 00:30:54;;;;;;;22.77;12.90;;;25.70;86.60;;;;;;5132137;28;20489;-74
2022/06/04 00:33:58;;;;;;;22.95;11.43;;;25.70;86.50;;;;;;5132161;28;20042;-74
2022/06/04 00:37:02;;;;;;;25.13;12.45;;;25.60;87.00;;;;;;5132056;28;20046;-74
2022/06/04 00:40:11;;;;;;;33.00;14.00;;;25.60;86.40;;;;;;5132047;28;20046;-74
2022/06/04 00:43:15;;;;;;;23.98;13.10;;;25.50;86.70;;;;;;5131436;28;20050;-74
2022/06/04 00:46:41;;;;;;;33.85;12.38;;;25.40;87.50;;;;;;5131177;28;20046;-74
2022/06/04 00:49:45;;;;;;;24.63;11.10;;;25.40;87.60;;;;;;5131618;28;20054;-74
2022/06/04 00:52:51;;;;;;;21.88;11.30;;;25.40;85.90;;;;;;5131537;28;20047;-74
2022/06/04 00:56:17;;;;;;;24.95;12.05;;;25.50;85.80;;;;;;5133731;27;20400;-74
2022/06/04 00:59:27;;;;;;;27.65;12.70;;;25.60;85.70;;;;;;5135026;27;20038;-74
2022/06/04 01:02:56;;;;;;;42.87;14.93;;;25.60;86.40;;;;;;5135539;27;20043;-74
2022/06/04 01:06:00;;;;;;;25.42;13.25;;;25.50;86.70;;;;;;5135409;27;20497;-74
2022/06/04 01:09:29;;;;;;;24.48;12.60;;;25.30;87.50;;;;;;5135233;27;20045;-74
2022/06/04 01:12:57;;;;;;;27.20;13.48;;;25.20;87.60;;;;;;5135165;27;20378;-74
2022/06/04 01:16:13;;;;;;;27.02;13.00;;;25.10;88.20;;;;;;5135366;27;20038;-74
2022/06/04 01:19:20;;;;;;;23.13;14.32;;;24.90;88.80;;;;;;5135437;27;20406;-74
2022/06/04 01:22:33;;;;;;;31.38;14.02;;;24.90;89.00;;;;;;5135159;27;20410;-74
2022/06/04 01:25:52;;;;;;;29.30;14.20;;;24.90;89.20;;;;;;5134305;27;20050;-74
2022/06/04 01:29:03;;;;;;;27.08;12.75;;;24.90;89.10;;;;;;5134926;27;20050;-74
2022/06/04 01:32:22;;;;;;;28.88;13.57;;;24.90;89.00;;;;;;5133865;27;20034;-73
2022/06/04 01:35:45;;;;;;;27.88;12.45;;;24.90;88.60;;;;;;5134672;27;20042;-74
2022/06/04 01:38:57;;;;;;;25.83;12.90;;;24.90;88.70;;;;;;5134016;27;20122;-74
2022/06/04 01:42:03;;;;;;;27.35;12.32;;;25.00;88.20;;;;;;5134893;27;20054;-73
2022/06/04 01:45:10;;;;;;;26.75;10.88;;;24.90;87.10;;;;;;5134679;27;20074;-73
2022/06/04 01:48:17;;;;;;;20.25;9.80;;;24.80;85.90;;;;;;5134742;27;20058;-74
2022/06/04 01:51:25;;;;;;;17.90;8.50;;;24.80;85.20;;;;;;5134447;27;20050;-73
2022/06/04 01:54:41;;;;;;;18.83;8.05;;;24.90;83.80;;;;;;5134513;27;20398;-74
2022/06/04 01:57:48;;;;;;;16.42;7.97;;;25.00;82.90;;;;;;5134274;27;20042;-74
2022/06/04 02:00:58;;;;;;;18.98;7.78;;;25.00;82.00;;;;;;5134449;27;20062;-74
2022/06/04 02:04:08;;;;;;;19.85;8.10;;;24.90;82.10;;;;;;5134604;27;20042;-73
2022/06/04 02:07:31;;;;;;;21.65;7.35;;;24.90;82.40;;;;;;5133066;27;20054;-73
2022/06/04 02:10:46;;;;;;;18.35;8.25;;;24.80;82.60;;;;;;5134442;27;20068;-74
2022/06/04 02:13:54;;;;;;;21.15;7.43;;;24.70;83.00;;;;;;5134033;27;20050;-74
2022/06/04 02:17:04;;;;;;;16.40;6.97;;;24.60;83.00;;;;;;5134142;27;20398;-74
2022/06/04 02:20:09;;;;;;;16.08;7.57;;;24.60;83.00;;;;;;5133270;27;20050;-73
2022/06/04 02:23:13;;;;;;;17.17;7.68;;;24.60;83.20;;;;;;5134079;27;20054;-73
2022/06/04 02:26:18;;;;;;;18.75;7.43;;;24.60;83.20;;;;;;5133964;27;20347;-73
2022/06/04 02:29:25;;;;;;;17.98;7.65;;;24.70;83.10;;;;;;5134000;27;20042;-73
2022/06/04 02:32:56;;;;;;;16.45;6.93;;;24.70;83.10;;;;;;5133773;27;20042;-73
2022/06/04 02:36:08;;;;;;;17.23;6.97;;;24.50;83.00;;;;;;5133990;27;20509;-73
2022/06/04 02:39:33;;;;;;;13.25;6.80;;;24.40;83.50;;;;;;5133685;27;20493;-73
2022/06/04 02:42:52;;;;;;;14.48;7.85;;;24.50;83.70;;;;;;5133449;27;20045;-73
2022/06/04 02:46:28;;;;;;;22.73;8.20;;;24.60;83.20;;;;;;5133583;27;20524;-73
2022/06/04 02:49:56;;;;;;;19.55;7.57;;;24.60;82.90;;;;;;5133182;27;20054;-73
2022/06/04 02:53:03;;;;;;;18.27;8.38;;;24.60;83.00;;;;;;5133575;27;20394;-73
2022/06/04 02:56:11;;;;;;;17.05;7.68;;;24.50;83.20;;;;;;5133585;27;20038;-74
2022/06/04 02:59:17;;;;;;;17.23;7.47;;;24.50;83.30;;;;;;5132433;27;20046;-73
2022/06/04 03:02:26;;;;;;;20.02;7.93;;;24.50;83.70;;;;;;5132942;27;20394;-73
2022/06/04 03:05:30;;;;;;;18.83;8.10;;;24.40;83.70;;;;;;5133121;27;20046;-74
2022/06/04 03:08:40;;;;;;;17.02;7.40;;;24.40;83.60;;;;;;5133024;27;20050;-73
2022/06/04 03:11:49;;;;;;;21.33;7.97;;;24.40;83.30;;;;;;5133123;27;20083;-73
2022/06/04 03:14:53;;;;;;;17.05;7.68;;;24.40;83.70;;;;;;5132951;27;20042;-73
2022/06/04 03:17:57;;;;;;;13.75;7.78;;;24.30;84.00;;;;;;5131906;27;20050;-73
2022/06/04 03:21:01;;;;;;;19.20;7.95;;;24.20;84.70;;;;;;5132578;27;20059;-73
2022/06/04 03:24:06;;;;;;;22.98;8.57;;;24.20;84.80;;;;;;5132074;27;20046;-73
2022/06/04 03:27:10;;;;;;;20.52;8.10;;;24.20;84.60;;;;;;5132784;27;20050;-73
2022/06/04 03:30:16;;;;;;;15.15;7.88;;;24.20;84.90;;;;;;5132545;27;20049;-73
2022/06/04 03:33:23;;;;;;;23.90;7.95;;;24.10;85.70;;;;;;5131851;27;20038;-73
2022/06/04 03:36:27;;;;;;;18.55;8.35;;;24.00;86.10;;;;;;5132549;27;20236;-73
2022/06/04 03:39:31;;;;;;;15.82;8.07;;;24.00;86.50;;;;;;5131875;27;20489;-73
2022/06/04 03:42:35;;;;;;;19.23;8.75;;;24.00;86.30;;;;;;5132629;27;20050;-74
2022/06/04 03:45:39;;;;;;;18.08;7.75;;;24.00;86.40;;;;;;5132372;27;20046;-73
2022/06/04 03:48:43;;;;;;;18.15;8.77;;;23.90;86.40;;;;;;5132251;27;20050;-73
2022/06/04 04:14:11;;;;;;;23.77;7.75;;;23.80;86.40;;;;;;5108861;27;20798;-67
2022/06/04 04:17:16;;;;;;;37.03;8.88;;;24.10;85.70;;;;;;5108706;28;20035;-66
2022/06/04 04:20:26;;;;;;;42.30;25.02;;;24.10;85.60;;;;;;5108924;28;20043;-67
2022/06/04 04:23:30;;;;;;;35.60;9.90;;;24.10;85.60;;;;;;5107942;28;20062;-67
2022/06/04 04:26:34;;;;;;;35.10;9.95;;;24.10;86.20;;;;;;5108675;28;20035;-67
2022/06/04 04:29:38;;;;;;;32.47;8.77;;;24.20;86.00;;;;;;5108746;28;20051;-66
2022/06/04 04:32:43;;;;;;;25.45;8.40;;;24.20;85.60;;;;;;5108379;28;20043;-66
2022/06/04 04:35:47;;;;;;;35.15;9.35;;;24.40;85.60;;;;;;5108689;28;20051;-66
2022/06/04 04:38:53;;;;;;;38.42;9.50;;;24.50;85.70;;;;;;5108602;28;20046;-66
2022/06/04 04:41:57;;;;;;;26.90;8.48;;;24.70;85.20;;;;;;5108560;28;20394;-66
2022/06/04 04:45:01;;;;;;;24.77;8.90;;;24.80;85.10;;;;;;5108451;28;20051;-66
2022/06/04 04:48:05;;;;;;;26.25;8.57;;;25.10;84.60;;;;;;5108429;28;20074;-66
2022/06/04 04:51:14;;;;;;;22.67;8.82;;;25.40;83.90;;;;;;5108318;28;20047;-66
2022/06/04 04:54:18;;;;;;;26.00;9.93;;;25.60;83.50;;;;;;5107470;28;20043;-66
2022/06/04 04:57:22;;;;;;;25.83;9.75;;;25.80;83.40;;;;;;5107072;28;20047;-66
2022/06/04 05:00:27;;;;;;;24.73;11.25;;;25.90;82.60;;;;;;5108152;28;20051;-66
2022/06/04 05:03:31;;;;;;;22.08;11.25;;;26.10;81.50;;;;;;5107652;28;20055;-66
2022/06/04 05:06:35;;;;;;;21.20;9.30;;;26.40;81.10;;;;;;5107698;28;20031;-66
2022/06/04 05:09:40;;;;;;;15.27;8.13;;;26.60;79.80;;;;;;5108089;28;20600;-66
2022/06/04 05:12:44;;;;;;;18.92;9.27;;;26.80;78.90;;;;;;5107640;28;20047;-67
2022/06/04 05:15:48;;;;;;;27.52;9.13;;;27.00;78.30;;;;;;5093894;28;20051;-67
2022/06/04 05:18:52;;;;;;;29.85;9.43;;;27.20;77.90;;;;;;5093917;28;20043;-67
2022/06/04 05:21:58;;;;;;;28.38;8.73;;;27.40;77.40;;;;;;5093757;28;20047;-67
2022/06/04 05:25:03;;;;;;;22.67;9.30;;;27.50;76.90;;;;;;5094111;28;20071;-68
2022/06/04 05:28:07;;;;;;;20.15;8.40;;;27.70;76.60;;;;;;5093969;28;20040;-67
2022/06/04 05:31:11;;;;;;;17.30;8.93;;;27.90;76.10;;;;;;5093757;28;20403;-67
2022/06/04 05:34:18;;;;;;;13.43;7.88;;;28.00;75.50;;;;;;5093748;28;20035;-67
2022/06/04 05:37:22;;;;;;;22.02;7.93;;;28.20;74.40;;;;;;5093860;28;20502;-67
2022/06/04 05:40:26;;;;;;;19.75;7.63;;;28.50;73.30;;;;;;5093789;28;20043;-67
2022/06/04 05:43:30;;;;;;;17.80;6.80;;;28.60;71.40;;;;;;5093233;28;20062;-67
2022/06/04 05:46:35;;;;;;;23.98;7.35;;;28.60;71.40;;;;;;5093507;28;20039;-67
2022/06/04 05:49:39;;;;;;;17.17;6.18;;;28.80;70.50;;;;;;5093531;28;20051;-67
2022/06/04 05:52:43;;;;;;;21.50;7.72;;;28.90;70.20;;;;;;5093356;28;20047;-68
2022/06/04 05:55:47;;;;;;;36.33;8.07;;;28.80;70.60;;;;;;5093557;28;20051;-68
2022/06/04 05:58:54;;;;;;;31.00;6.90;;;28.50;70.70;;;;;;5093340;28;20054;-68
2022/06/04 06:01:58;;;;;;;32.75;6.80;;;28.10;71.80;;;;;;5093273;28;20039;-68
2022/06/04 06:05:03;;;;;;;26.08;7.25;;;27.80;72.20;;;;;;5092383;28;20055;-68
2022/06/04 06:08:07;;;;;;;19.45;6.72;;;27.90;72.90;;;;;;5093493;28;20054;-69
2022/06/04 06:11:15;;;;;;;19.10;7.10;;;28.10;72.50;;;;;;5093497;28;20047;-68
2022/06/04 06:14:19;;;;;;;22.27;7.20;;;28.20;72.80;;;;;;5053047;28;20049;-69
2022/06/04 06:17:23;;;;;;;21.75;8.15;;;28.50;72.50;;;;;;5053105;28;20384;-69
2022/06/04 06:20:27;;;;;;;24.90;8.07;;;28.60;72.50;;;;;;5052668;28;20384;-69
2022/06/04 06:23:31;;;;;;;24.70;8.77;;;28.70;72.20;;;;;;5052190;28;20071;-68
2022/06/04 06:26:43;;;;;;;27.92;8.40;;;28.90;72.00;;;;;;5051490;28;20040;-70
2022/06/04 06:29:48;;;;;;;27.50;8.77;;;29.00;71.70;;;;;;5052463;28;20502;-68
2022/06/04 06:32:52;;;;;;;28.45;7.97;;;29.20;71.70;;;;;;5052200;28;20048;-69
2022/06/04 06:35:57;;;;;;;29.63;9.40;;;29.30;71.40;;;;;;5051541;28;20048;-67
2022/06/04 06:39:02;;;;;;;19.83;8.15;;;29.50;71.30;;;;;;5052329;28;20067;-67
2022/06/04 06:42:06;;;;;;;36.08;9.75;;;29.60;70.70;;;;;;5052011;28;20040;-70
2022/06/04 06:45:23;;;;;;;24.88;8.80;;;29.60;70.40;;;;;;5039955;28;20063;-67
2022/06/04 06:48:27;;;;;;;25.52;8.52;;;29.50;70.50;;;;;;5052107;28;20055;-68
2022/06/04 06:51:38;;;;;;;23.25;8.45;;;29.70;70.70;;;;;;5039702;28;20056;-68
2022/06/04 06:54:43;;;;;;;25.33;9.30;;;29.80;70.10;;;;;;5051623;28;20048;-69
2022/06/04 06:57:47;;;;;;;27.33;9.13;;;29.70;70.70;;;;;;5052184;28;20060;-69
2022/06/04 07:00:51;;;;;;;28.77;7.47;;;29.60;70.00;;;;;;5051905;28;20040;-69
2022/06/04 07:03:56;;;;;;;28.40;7.70;;;29.40;70.40;;;;;;5051339;28;20099;-69
2022/06/04 07:07:02;;;;;;;23.80;7.28;;;29.30;70.30;;;;;;5050763;28;20048;-67
2022/06/04 07:10:06;;;;;;;32.20;8.18;;;29.20;70.70;;;;;;5050681;28;20530;-68
2022/06/04 07:13:10;;;;;;;22.67;7.32;;;29.10;71.40;;;;;;5075228;28;20055;-68
2022/06/04 07:16:14;;;;;;;21.65;7.72;;;29.20;70.60;;;;;;5091596;28;20039;-68
2022/06/04 07:19:20;;;;;;;33.00;7.38;;;29.50;69.60;;;;;;5091426;28;20047;-66
2022/06/04 07:22:24;;;;;;;24.65;7.22;;;29.90;69.00;;;;;;5091667;28;20043;-65
2022/06/04 07:25:32;;;;;;;22.05;6.80;;;30.50;68.00;;;;;;5091162;28;20051;-65
2022/06/04 07:28:37;;;;;;;16.20;6.50;;;31.00;66.20;;;;;;5090467;28;20043;-65
2022/06/04 07:31:41;;;;;;;29.95;6.28;;;31.30;65.40;;;;;;5091329;28;20062;-65
2022/06/04 07:34:45;;;;;;;21.88;7.30;;;31.40;64.70;;;;;;5091139;28;20055;-67
2022/06/04 07:37:49;;;;;;;20.58;7.32;;;31.60;64.60;;;;;;5091117;28;20055;-66
2022/06/04 07:40:53;;;;;;;26.23;7.38;;;31.80;64.30;;;;;;5091248;28;20051;-66
2022/06/04 07:43:57;;;;;;;18.83;6.22;;;32.00;63.40;;;;;;5090804;28;20055;-65
2022/06/04 07:47:01;;;;;;;21.50;6.78;;;32.20;63.60;;;;;;5091224;28;20043;-66
2022/06/04 07:50:05;;;;;;;25.40;7.53;;;32.30;63.00;;;;;;5090765;28;20040;-66
2022/06/04 07:53:10;;;;;;;27.65;7.35;;;32.50;63.30;;;;;;5090953;28;20047;-66
2022/06/04 07:56:16;;;;;;;17.77;7.47;;;32.40;63.60;;;;;;5091097;28;20103;-66
2022/06/04 07:59:20;;;;;;;20.58;7.88;;;32.10;64.40;;;;;;5091261;28;20034;-66
2022/06/04 08:02:25;;;;;;;20.75;7.47;;;31.70;64.60;;;;;;5090964;28;20047;-65
2022/06/04 08:05:28;;;;;;;27.83;8.07;;;31.40;64.50;;;;;;5090996;28;20055;-66
2022/06/04 08:08:34;;;;;;;22.60;7.95;;;31.10;64.90;;;;;;5090668;28;20055;-66
2022/06/04 08:11:38;;;;;;;21.50;8.70;;;31.40;67.00;;;;;;5090602;28;20051;-66
2022/06/04 08:14:42;;;;;;;19.75;6.95;;;31.60;64.60;;;;;;5090859;28;20062;-65
2022/06/04 08:17:47;;;;;;;22.38;7.38;;;31.70;64.50;;;;;;5090520;28;20047;-65
2022/06/04 08:20:53;;;;;;;29.50;8.13;;;32.00;64.10;;;;;;5090685;28;20114;-65
2022/06/04 08:23:56;;;;;;;19.38;7.90;;;31.90;64.00;;;;;;5090401;28;20059;-67
2022/06/04 08:27:02;;;;;;;20.35;7.57;;;31.80;64.10;;;;;;5090884;28;20047;-67
2022/06/04 08:30:07;;;;;;;23.38;7.90;;;31.60;64.80;;;;;;5090861;28;20375;-66
2022/06/04 08:33:11;;;;;;;30.77;8.65;;;31.60;64.60;;;;;;5090845;28;20047;-67
2022/06/04 08:36:16;;;;;;;19.58;6.15;;;31.80;63.80;;;;;;5091044;28;20051;-66
2022/06/04 08:39:20;;;;;;;13.98;5.88;;;32.10;62.20;;;;;;5091163;28;20055;-66
2022/06/04 08:42:34;;;;;;;23.38;7.18;;;32.40;61.10;;;;;;5090772;28;20403;-67
2022/06/04 08:45:39;;;;;;;17.15;6.32;;;32.40;60.60;;;;;;5091034;28;20075;-66
2022/06/04 08:48:43;;;;;;;18.67;6.00;;;32.50;61.30;;;;;;5091506;28;20466;-66
2022/06/04 08:51:47;;;;;;;15.07;6.20;;;32.60;62.10;;;;;;5094468;28;20395;-67
2022/06/04 08:58:36;;;;;;;21.67;9.98;;;32.30;61.20;;;;;;5094352;28;20043;-67
2022/06/04 09:01:42;;;;;;;16.33;8.98;;;32.10;62.30;;;;;;5094478;28;20043;-67
2022/06/04 09:05:01;;;;;;;24.48;10.65;;;31.90;63.00;;;;;;5093211;28;20059;-66
2022/06/04 09:08:14;;;;;;;30.63;10.18;;;31.70;62.10;;;;;;5094413;28;20039;-67
2022/06/04 09:12:03;;;;;;;30.55;10.30;;;31.60;62.60;;;;;;5094522;28;20047;-67
2022/06/04 09:15:17;;;;;;;18.67;7.83;;;31.50;61.90;;;;;;5088579;28;20047;-66
2022/06/04 09:18:50;;;;;;;17.80;7.28;;;31.50;61.80;;;;;;5094018;28;20039;-67
2022/06/04 09:21:56;;;;;;;16.95;7.80;;;31.50;62.20;;;;;;5093953;28;20047;-66
2022/06/04 09:25:00;;;;;;;19.95;8.57;;;31.70;63.00;;;;;;5094144;28;20051;-66
2022/06/04 09:28:30;;;;;;;25.30;9.98;;;32.00;63.20;;;;;;5093673;28;20043;-67
2022/06/04 09:31:50;;;;;;;19.10;9.75;;;32.50;62.90;;;;;;5093853;28;20050;-66
2022/06/04 09:34:55;;;;;;;16.30;7.88;;;32.90;61.80;;;;;;5093861;28;20047;-66
2022/06/04 09:38:00;;;;;;;27.58;8.90;;;33.20;60.90;;;;;;5093507;28;20047;-67
2022/06/04 09:41:18;;;;;;;28.13;9.02;;;33.50;60.10;;;;;;5093611;28;20043;-66
2022/06/04 09:44:24;;;;;;;18.23;7.80;;;33.60;60.30;;;;;;5093505;28;20047;-66
2022/06/04 09:47:35;;;;;;;19.73;8.07;;;33.80;60.00;;;;;;5093392;28;20047;-67
2022/06/04 09:50:39;;;;;;;21.17;7.85;;;33.90;58.30;;;;;;5093537;28;20479;-67
2022/06/04 09:53:46;;;;;;;28.02;9.50;;;33.90;58.70;;;;;;5093013;28;20501;-66
2022/06/04 09:56:54;;;;;;;16.95;7.25;;;33.80;58.30;;;;;;5093092;28;20106;-66
2022/06/04 10:00:00;;;;;;;23.70;7.60;;;33.80;59.00;;;;;;5093013;28;20379;-66
2022/06/04 10:03:19;;;;;;;14.93;6.57;;;33.90;58.50;;;;;;5092607;28;20051;-66
2022/06/04 10:06:25;;;;;;;13.00;5.65;;;33.90;58.00;;;;;;5093132;28;20063;-65
2022/06/04 10:16:15;;;;;;;12.85;5.53;;;34.00;55.90;;;;;;5092857;28;20498;-66
2022/06/04 10:19:22;;;;;;;13.70;5.75;;;34.10;56.30;;;;;;5093081;28;20051;-66
2022/06/04 10:22:26;;;;;;;14.98;5.68;;;34.10;57.00;;;;;;5092474;28;20043;-66
2022/06/04 10:25:41;;;;;;;23.38;5.93;;;34.10;56.20;;;;;;5092302;28;20071;-66
2022/06/04 10:29:27;;;;;;;15.95;5.30;;;34.20;56.00;;;;;;5092387;28;20039;-67
2022/06/04 10:32:50;;;;;;;10.27;4.10;;;34.20;55.00;;;;;;5091261;28;20110;-66
2022/06/04 10:36:22;;;;;;;8.75;4.97;;;34.10;54.70;;;;;;5091909;28;20047;-66
2022/06/04 10:39:49;;;;;;;17.55;5.28;;;34.10;55.10;;;;;;5092367;28;20383;-67
2022/06/04 10:43:18;;;;;;;11.68;4.65;;;34.00;54.70;;;;;;5087479;28;20051;-67
2022/06/04 10:46:25;;;;;;;7.68;4.18;;;33.90;54.50;;;;;;5092347;28;20058;-66
2022/06/04 10:49:44;;;;;;;13.57;4.65;;;33.90;54.60;;;;;;5092230;28;20039;-66
2022/06/04 10:53:12;;;;;;;26.40;8.10;;;33.90;54.20;;;;;;5092108;28;20043;-65
2022/06/04 10:56:34;;;;;;;11.32;4.55;;;33.90;55.30;;;;;;5092188;28;20047;-66
2022/06/04 10:59:44;;;;;;;14.85;5.30;;;33.90;56.10;;;;;;5092159;28;20379;-66
2022/06/04 11:03:03;;;;;;;12.60;4.50;;;33.90;54.40;;;;;;5091901;28;20407;-65
2022/06/04 11:06:27;;;;;;;8.50;4.10;;;33.90;55.30;;;;;;5091923;28;20407;-66
2022/06/04 11:09:35;;;;;;;22.40;5.93;;;33.90;54.80;;;;;;5092093;28;20049;-65
2022/06/04 11:12:51;;;;;;;10.07;4.50;;;33.90;55.60;;;;;;5091159;28;20047;-66
2022/06/04 11:16:09;;;;;;;11.38;4.90;;;33.90;55.40;;;;;;5091710;28;20031;-66
2022/06/04 11:19:26;;;;;;;7.40;4.05;;;33.90;55.60;;;;;;5092152;28;20055;-66
2022/06/04 11:22:36;;;;;;;12.13;5.03;;;33.90;55.60;;;;;;5091715;28;20036;-65
2022/06/04 11:25:43;;;;;;;13.10;5.35;;;33.90;56.30;;;;;;5091898;28;20055;-66
2022/06/04 11:28:48;;;;;;;13.18;4.95;;;33.90;56.50;;;;;;5091656;28;20498;-66
2022/06/04 11:32:13;;;;;;;11.15;5.35;;;33.90;55.70;;;;;;5091941;28;20043;-66
2022/06/04 11:35:45;;;;;;;18.23;5.85;;;34.00;56.10;;;;;;5091890;28;20039;-66
2022/06/04 11:39:12;;;;;;;12.27;5.85;;;34.00;56.90;;;;;;5090705;28;20039;-66
2022/06/04 11:42:30;;;;;;;10.07;5.38;;;34.00;56.40;;;;;;5091602;28;20039;-66
2022/06/04 11:46:05;;;;;;;9.48;5.28;;;34.00;56.70;;;;;;5091737;28;20510;-66
2022/06/04 11:49:26;;;;;;;13.30;5.50;;;34.10;57.70;;;;;;5090762;28;20050;-66
2022/06/04 11:52:36;;;;;;;11.38;6.10;;;34.10;58.10;;;;;;5091288;28;20047;-66
2022/06/04 11:55:46;;;;;;;14.30;6.53;;;34.20;58.60;;;;;;5090782;28;20043;-66
2022/06/04 11:58:50;;;;;;;;;;;34.20;59.20;;;;;;5091767;28;20047;-66
2022/06/04 12:02:05;;;;;;;17.38;7.03;;;34.30;58.70;;;;;;5091280;28;19915;-66
2022/06/04 12:05:10;;;;;;;12.18;6.22;;;34.20;59.20;;;;;;5091296;28;20055;-66
2022/06/04 12:08:19;;;;;;;22.50;7.70;;;34.20;59.90;;;;;;5091385;28;20395;-66
2022/06/04 12:11:49;;;;;;;17.77;8.77;;;34.20;60.30;;;;;;5091345;28;20038;-66
2022/06/04 12:15:21;;;;;;;14.90;6.70;;;34.10;60.40;;;;;;5091420;28;20059;-66
2022/06/04 12:18:34;;;;;;;10.05;6.25;;;34.10;61.10;;;;;;5091132;28;20047;-66
2022/06/04 12:25:05;;;;;;;41.30;9.82;;;34.00;60.90;;;;;;5093864;28;20055;-66
2022/06/04 12:28:22;;;;;;;14.80;6.22;;;33.90;60.00;;;;;;5095150;28;20043;-66
2022/06/04 12:31:35;;;;;;;17.17;6.43;;;33.90;60.50;;;;;;5095387;28;20039;-66
2022/06/04 12:34:40;;;;;;;10.57;5.28;;;33.80;60.90;;;;;;5094877;28;20039;-66
2022/06/04 12:37:49;;;;;;;24.30;6.60;;;33.80;61.30;;;;;;5094843;28;20510;-66
2022/06/04 12:41:09;;;;;;;10.63;5.28;;;33.80;61.40;;;;;;5095037;28;20205;-66
2022/06/04 12:44:41;;;;;;;13.15;4.85;;;33.80;61.10;;;;;;5094628;28;20054;-65
2022/06/04 12:47:57;;;;;;;8.98;5.28;;;33.70;62.20;;;;;;5094930;28;20047;-65
2022/06/04 12:51:07;;;;;;;11.80;5.18;;;33.70;62.20;;;;;;5094591;28;20032;-66
2022/06/04 12:54:28;;;;;;;11.27;4.88;;;33.60;61.80;;;;;;5094858;28;20697;-66
2022/06/04 12:58:03;;;;;;;13.48;4.90;;;33.60;62.70;;;;;;5094948;28;20110;-65
2022/06/04 13:01:18;;;;;;;11.00;5.22;;;33.60;62.80;;;;;;5094667;28;20051;-66
2022/06/04 13:04:35;;;;;;;8.15;4.35;;;33.60;61.90;;;;;;5093456;28;20059;-66
2022/06/04 13:08:08;;;;;;;18.73;5.32;;;33.50;61.60;;;;;;5094441;28;20032;-66
2022/06/04 13:11:18;;;;;;;39.20;6.10;;;33.40;60.80;;;;;;5094433;28;20063;-66
2022/06/04 13:14:43;;;;;;;11.35;4.38;;;33.30;60.90;;;;;;5094252;28;20055;-66
2022/06/04 13:17:50;;;;;;;20.48;5.20;;;33.20;60.90;;;;;;5094187;28;20403;-66
2022/06/04 13:21:00;;;;;;;12.63;4.82;;;33.20;60.00;;;;;;5094288;28;20047;-66
2022/06/04 13:24:12;;;;;;;14.85;5.25;;;33.10;60.90;;;;;;5094052;28;20055;-65
2022/06/04 13:27:27;;;;;;;11.57;5.30;;;33.10;61.50;;;;;;5094043;28;20051;-67
2022/06/04 13:30:34;;;;;;;14.13;5.00;;;33.10;61.80;;;;;;5094168;28;20043;-66
2022/06/04 13:33:38;;;;;;;15.52;5.30;;;33.10;60.50;;;;;;5094001;28;20051;-66
2022/06/04 13:36:47;;;;;;;12.88;5.38;;;33.00;60.40;;;;;;5094075;28;20051;-66
2022/06/04 13:39:54;;;;;;;11.95;5.15;;;33.00;60.60;;;;;;5093955;28;20043;-67
2022/06/04 13:43:01;;;;;;;11.27;4.95;;;33.00;61.10;;;;;;5093719;28;20047;-65
2022/06/04 13:46:14;;;;;;;15.23;5.07;;;33.00;61.70;;;;;;5093601;28;20047;-66
2022/06/04 13:49:24;;;;;;;16.02;5.55;;;33.00;62.10;;;;;;5093526;28;20443;-66
2022/06/04 13:52:29;;;;;;;9.32;4.75;;;33.00;61.50;;;;;;5093356;28;20042;-66
2022/06/04 13:55:40;;;;;;;12.68;4.60;;;33.00;60.00;;;;;;5093689;28;20044;-66
2022/06/04 13:58:45;;;;;;;15.57;4.38;;;33.00;60.50;;;;;;5093221;28;20047;-66
2022/06/04 14:01:53;;;;;;;10.38;4.57;;;33.00;60.30;;;;;;5093327;28;20106;-66
2022/06/04 14:08:50;;;;;;;11.27;4.25;;;33.10;59.50;;;;;;5093464;28;20040;-67
2022/06/04 14:12:35;;;;;;;8.10;4.75;;;33.10;59.40;;;;;;5093174;28;20043;-67
2022/06/04 14:15:57;;;;;;;12.73;4.72;;;33.10;59.10;;;;;;5078830;28;20052;-67
2022/06/04 14:19:25;;;;;;;10.30;4.63;;;33.10;59.20;;;;;;5091895;28;20043;-67
2022/06/04 14:22:48;;;;;;;8.65;3.88;;;33.20;58.50;;;;;;5092024;28;20035;-67
2022/06/04 14:25:58;;;;;;;15.40;5.22;;;33.20;57.20;;;;;;5093064;28;20094;-67
2022/06/04 14:29:41;;;;;;;6.00;3.75;;;33.20;57.00;;;;;;5093060;28;20043;-65
2022/06/04 14:32:55;;;;;;;9.38;4.13;;;33.20;57.20;;;;;;5092696;28;20506;-64
2022/06/04 14:36:06;;;;;;;7.40;3.25;;;33.10;56.70;;;;;;5092408;28;20036;-65
2022/06/04 14:39:10;;;;;;;8.98;3.22;;;33.10;56.60;;;;;;5092565;28;20055;-65
2022/06/04 14:42:32;;;;;;;10.15;3.50;;;33.20;56.40;;;;;;5092677;28;20036;-66
2022/06/04 14:46:11;;;;;;;8.50;3.60;;;33.20;56.00;;;;;;5092532;28;20059;-66
2022/06/04 14:49:15;;;;;;;11.48;3.80;;;33.20;56.20;;;;;;5091425;28;20040;-66
2022/06/04 14:52:25;;;;;;;8.82;4.35;;;33.20;55.70;;;;;;5092491;28;20051;-65
2022/06/04 14:56:07;;;;;;;14.53;3.57;;;33.10;55.50;;;;;;5091657;28;20043;-66
2022/06/04 14:59:44;;;;;;;6.90;3.00;;;33.10;54.50;;;;;;5091965;28;20039;-65
2022/06/04 15:03:16;;;;;;;4.07;1.95;;;33.20;51.20;;;;;;5091430;28;20044;-66
2022/06/04 15:06:33;;;;;;;5.32;3.10;;;33.20;49.00;;;;;;5091419;28;20043;-66
2022/06/04 15:10:06;;;;;;;4.50;2.00;;;33.20;50.10;;;;;;5091612;28;20072;-66
2022/06/04 15:13:24;;;;;;;6.60;1.85;;;33.20;48.00;;;;;;5086753;28;20448;-66
2022/06/04 15:16:28;;;;;;;9.68;1.85;;;33.20;48.70;;;;;;5091525;28;20028;-66
2022/06/04 15:19:54;;;;;;;5.15;2.13;;;33.10;49.00;;;;;;5091099;28;20044;-66
2022/06/04 15:23:29;;;;;;;4.00;1.58;;;33.20;49.10;;;;;;5091521;28;20391;-67
2022/06/04 15:26:52;;;;;;;4.38;1.85;;;33.10;48.30;;;;;;5091203;28;20051;-66
2022/06/04 15:33:56;;;;;;;4.30;1.70;;;33.10;47.10;;;;;;5091003;28;20032;-66
2022/06/04 15:37:07;;;;;;;2.58;1.48;;;33.10;47.20;;;;;;5090986;28;20047;-66
2022/06/04 15:40:19;;;;;;;3.47;1.40;;;33.10;47.00;;;;;;5091412;28;20059;-66
2022/06/04 15:43:35;;;;;;;3.25;1.40;;;33.10;45.40;;;;;;5090642;28;20039;-66
2022/06/04 15:46:47;;;;;;;3.42;1.52;;;33.00;46.10;;;;;;5090987;28;20055;-66
2022/06/04 15:56:49;;;;;;;6.13;1.98;;;33.00;46.00;;;;;;5090833;28;20060;-66
2022/06/04 16:00:18;;;;;;;4.53;2.00;;;33.00;46.00;;;;;;5090454;28;20511;-66
2022/06/04 16:03:33;;;;;;;8.55;2.40;;;33.00;46.60;;;;;;5090713;28;20028;-66
2022/06/04 16:06:47;;;;;;;7.28;2.15;;;33.00;46.60;;;;;;5090859;28;20050;-66
2022/06/04 16:10:14;;;;;;;5.97;1.88;;;33.00;46.70;;;;;;5090350;28;20051;-67
2022/06/04 16:13:21;;;;;;;2.92;1.38;;;33.00;46.60;;;;;;5090473;28;20048;-67
2022/06/04 16:16:30;;;;;;;4.55;1.65;;;32.90;46.40;;;;;;5090920;28;20051;-67
2022/06/04 16:20:06;;;;;;;8.18;2.40;;;32.90;45.60;;;;;;5090570;28;20040;-67
2022/06/04 16:23:16;;;;;;;4.82;1.67;;;32.90;45.30;;;;;;5089782;28;20036;-66
2022/06/04 16:26:23;;;;;;;6.75;1.90;;;32.90;44.10;;;;;;5090772;28;20152;-65
2022/06/04 16:29:30;;;;;;;2.72;1.30;;;32.90;44.10;;;;;;5089659;28;20036;-66
2022/06/04 16:32:34;;;;;;;2.42;1.70;;;32.90;44.90;;;;;;5089649;28;20047;-65
2022/06/04 16:35:47;;;;;;;4.15;1.58;;;32.80;45.30;;;;;;5090586;28;20050;-66
2022/06/04 16:38:54;;;;;;;7.65;2.05;;;32.80;45.60;;;;;;5090143;28;20043;-65
2022/06/04 16:42:10;;;;;;;3.53;2.00;;;32.80;45.90;;;;;;5090039;28;20036;-65
2022/06/04 16:45:25;;;;;;;7.30;1.77;;;32.80;46.80;;;;;;5090253;28;20051;-66
2022/06/04 16:48:31;;;;;;;7.68;2.30;;;32.80;45.80;;;;;;5090234;28;20036;-66
2022/06/04 16:51:36;;;;;;;5.75;2.58;;;32.70;46.40;;;;;;5090031;28;20055;-66
2022/06/04 16:54:42;;;;;;;10.88;4.00;;;32.70;46.80;;;;;;5090081;28;20047;-66
2022/06/04 16:57:48;;;;;;;7.63;3.38;;;32.70;47.40;;;;;;5089055;28;20059;-65
2022/06/04 17:01:21;;;;;;;8.10;3.30;;;32.70;47.30;;;;;;5089943;28;20400;-65
2022/06/04 17:04:33;;;;;;;5.18;2.30;;;32.60;47.00;;;;;;5090299;28;20040;-66
2022/06/04 17:07:55;;;;;;;6.65;2.42;;;32.60;47.20;;;;;;5089805;28;20036;-66
2022/06/04 17:11:11;;;;;;;4.35;2.40;;;32.60;47.50;;;;;;5092860;28;20043;-66
2022/06/04 17:14:41;;;;;;;9.90;3.00;;;32.50;48.00;;;;;;5093696;28;20047;-68
2022/06/04 17:18:10;;;;;;;6.05;2.30;;;32.50;48.50;;;;;;5090539;28;20043;-68
2022/06/04 17:21:33;;;;;;;7.30;2.88;;;32.50;48.60;;;;;;5093335;28;20055;-68